Time;durP1;ratioP1;P1;durP2;ratioP2;P2;SDS_P1;SDS_P2;PMS_P1;PMS_P2;Temp;Humidity;BMP_temperature;BMP_pressure;BME280_temperature;BME280_humidity;BME280_pressure;Samples;Min_cycle;Max_cycle;Signal;HPM_P1;HPM_P2
2022/10/07 00:00:57;;;;;;;;;;;26.60;99.90;;;;;;4225957;28;19928;-66
2022/10/07 00:03:03;;;;;;;;;;;26.60;99.90;;;;;;4227217;28;19928;-66
2022/10/07 00:05:12;;;;;;;;;;;26.60;99.90;;;;;;4228085;28;20019;-66
2022/10/07 00:07:22;;;;;;;;;;;26.70;99.90;;;;;;4226912;27;20090;-66
2022/10/07 00:09:26;;;;;;;;;;;26.70;99.90;;;;;;4229750;27;20023;-66
2022/10/07 00:11:33;;;;;;;;;;;26.70;99.90;;;;;;4227433;28;19928;-66
2022/10/07 00:13:40;;;;;;;;;;;26.70;99.90;;;;;;4223523;28;19928;-66
2022/10/07 00:15:45;;;;;;;;;;;26.70;99.90;;;;;;4224963;28;19943;-66
2022/10/07 00:17:53;;;;;;;;;;;26.70;99.90;;;;;;4227446;28;19927;-66
2022/10/07 00:19:59;;;;;;;;;;;26.70;99.90;;;;;;4223276;28;19928;-68
2022/10/07 00:22:04;;;;;;;;;;;26.80;99.90;;;;;;4224070;28;20476;-66
2022/10/07 00:24:10;;;;;;;;;;;26.80;99.90;;;;;;4226659;28;20603;-67
2022/10/07 00:26:20;;;;;;;;;;;26.90;99.90;;;;;;4226199;28;19932;-66
2022/10/07 00:28:25;;;;;;;;;;;26.90;99.90;;;;;;4206815;28;20160;-66
2022/10/07 00:30:32;;;;;;;;;;;27.00;99.90;;;;;;4225971;28;20465;-66
2022/10/07 00:32:44;;;;;;;;;;;27.10;99.90;;;;;;4224612;28;19927;-67
2022/10/07 00:34:51;;;;;;;;;;;27.00;99.90;;;;;;4199112;28;19943;-67
2022/10/07 00:36:58;;;;;;;;;;;27.00;99.90;;;;;;4220227;27;19931;-66
2022/10/07 00:39:05;;;;;;;;;;;27.10;99.90;;;;;;4220585;27;20634;-67
2022/10/07 00:41:16;;;;;;;;;;;27.20;99.90;;;;;;4225670;27;20449;-67
2022/10/07 00:43:28;;;;;;;;;;;27.30;99.90;;;;;;4206561;28;19927;-67
2022/10/07 00:45:34;;;;;;;;;;;27.30;99.90;;;;;;4222881;28;20303;-66
2022/10/07 00:47:40;;;;;;;;;;;27.30;99.90;;;;;;4204919;28;19928;-67
2022/10/07 00:49:47;;;;;;;;;;;27.30;99.90;;;;;;4225987;28;19935;-66
2022/10/07 00:51:52;;;;;;;;;;;27.30;99.90;;;;;;4226285;28;19960;-67
2022/10/07 00:53:56;;;;;;;;;;;27.10;99.90;;;;;;4226302;28;19971;-67
2022/10/07 00:56:02;;;;;;;;;;;27.20;99.90;;;;;;4222523;28;19935;-66
2022/10/07 00:58:08;;;;;;;;;;;27.20;99.90;;;;;;4220863;28;19932;-67
2022/10/07 01:00:13;;;;;;;;;;;27.20;99.90;;;;;;4207212;28;20510;-67
2022/10/07 01:02:19;;;;;;;;;;;27.30;99.90;;;;;;4207518;28;20039;-67
2022/10/07 01:04:26;;;;;;;;;;;27.30;99.90;;;;;;4223103;28;19959;-67
2022/10/07 01:06:30;;;;;;;;;;;27.30;99.90;;;;;;4222289;28;19934;-67
2022/10/07 01:08:37;;;;;;;;;;;27.40;99.90;;;;;;4205359;28;19932;-67
2022/10/07 01:10:48;;;;;;;;;;;27.40;99.90;;;;;;4204194;28;20553;-67
2022/10/07 01:13:04;;;;;;;;;;;27.40;99.90;;;;;;4202625;28;19931;-66
2022/10/07 01:15:10;;;;;;;;;;;27.50;99.90;;;;;;4219340;28;19939;-67
2022/10/07 01:17:25;;;;;;;;;;;27.50;99.90;;;;;;4213319;28;20051;-67
2022/10/07 01:19:38;;;;;;;;;;;27.60;99.90;;;;;;4221006;28;19932;-67
2022/10/07 01:21:48;;;;;;;;;;;27.60;99.90;;;;;;4225317;28;19927;-67
2022/10/07 01:24:08;;;;;;;;;;;27.70;99.90;;;;;;4222492;28;20046;-67
2022/10/07 01:26:22;;;;;;;;;;;27.80;99.90;;;;;;4221574;27;19959;-66
2022/10/07 01:28:43;;;;;;;;;;;27.80;99.90;;;;;;4205480;28;19998;-67
2022/10/07 01:30:51;;;;;;;;;;;27.80;99.90;;;;;;4201190;28;19970;-67
2022/10/07 01:32:58;;;;;;;;;;;27.90;99.90;;;;;;4222409;28;19980;-67
2022/10/07 01:35:04;;;;;;;;;;;27.90;99.90;;;;;;4200024;28;19928;-67
2022/10/07 01:37:11;;;;;;;;;;;27.90;99.90;;;;;;4217589;28;19935;-67
2022/10/07 01:39:15;;;;;;;;;;;28.00;99.90;;;;;;4204439;28;19943;-67
2022/10/07 01:41:23;;;;;;;;;;;28.00;99.90;;;;;;4191215;28;19928;-66
2022/10/07 01:43:30;;;;;;;;;;;28.10;99.90;;;;;;4203199;28;20017;-67
2022/10/07 01:45:35;;;;;;;;;;;28.20;99.90;;;;;;4216268;27;19955;-66
2022/10/07 01:47:39;;;;;;;;;;;28.20;99.90;;;;;;4205873;28;19943;-67
2022/10/07 01:49:44;;;;;;;;;;;28.30;99.90;;;;;;4197400;28;19978;-66
2022/10/07 01:51:54;;;;;;;;;;;28.20;99.90;;;;;;4192859;28;20824;-67
2022/10/07 01:54:18;;;;;;;;;;;28.10;99.90;;;;;;4187971;28;20047;-66
2022/10/07 01:56:35;;;;;;;;;;;28.10;99.90;;;;;;4206602;28;19996;-66
2022/10/07 01:58:43;;;;;;;;;;;28.20;99.90;;;;;;4214376;27;19928;-66
2022/10/07 02:00:51;;;;;;;;;;;28.20;99.90;;;;;;4199518;28;20038;-67
2022/10/07 02:03:03;;;;;;;;;;;28.30;99.90;;;;;;4205691;28;19988;-67
2022/10/07 02:05:30;;;;;;;;;;;28.30;99.90;;;;;;4204534;28;19956;-67
2022/10/07 02:07:35;;;;;;;;;;;28.40;99.90;;;;;;4220469;28;19928;-67
2022/10/07 02:09:45;;;;;;;;;;;28.40;99.90;;;;;;4201034;28;20014;-67
2022/10/07 02:11:52;;;;;;;;;;;28.40;99.90;;;;;;4178142;28;19928;-66
2022/10/07 02:13:59;;;;;;;;;;;28.50;99.90;;;;;;4195671;28;19932;-66
2022/10/07 02:16:09;;;;;;;;;;;28.50;99.90;;;;;;4236606;27;20289;-67
2022/10/07 02:18:15;;;;;;;;;;;28.60;99.90;;;;;;4204211;28;19954;-67
2022/10/07 02:20:20;;;;;;;;;;;28.60;99.90;;;;;;4206214;28;20030;-67
2022/10/07 02:22:27;;;;;;;;;;;28.70;99.90;;;;;;4222372;28;19934;-67
2022/10/07 02:24:34;;;;;;;;;;;28.80;99.90;;;;;;4190005;28;20302;-66
2022/10/07 02:26:43;;;;;;;;;;;28.80;99.90;;;;;;4189231;28;20325;-66
2022/10/07 02:28:52;;;;;;;;;;;28.90;99.90;;;;;;4221983;28;20283;-67
2022/10/07 02:30:59;;;;;;;;;;;28.90;99.90;;;;;;4206353;28;19928;-67
2022/10/07 02:33:05;;;;;;;;;;;29.00;99.90;;;;;;4238098;27;19934;-66
2022/10/07 02:35:30;;;;;;;;;;;29.00;99.90;;;;;;4190165;28;20506;-66
2022/10/07 02:37:34;;;;;;;;;;;29.00;99.90;;;;;;4237168;27;19934;-66
2022/10/07 02:39:41;;;;;;;;;;;29.00;99.90;;;;;;4207015;28;19958;-66
2022/10/07 02:41:48;;;;;;;;;;;29.00;99.90;;;;;;4203586;28;19932;-66
2022/10/07 02:44:03;;;;;;;;;;;29.10;99.90;;;;;;4236254;27;19927;-66
2022/10/07 02:46:12;;;;;;;;;;;29.10;99.90;;;;;;4222068;28;19963;-67
2022/10/07 02:48:20;;;;;;;;;;;29.10;99.90;;;;;;4205653;28;20002;-66
2022/10/07 02:50:24;;;;;;;;;;;29.10;99.90;;;;;;4220599;28;19981;-66
2022/10/07 02:52:31;;;;;;;;;;;29.20;99.90;;;;;;4200188;28;19928;-67
2022/10/07 02:54:38;;;;;;;;;;;29.30;99.90;;;;;;4200109;28;20137;-67
2022/10/07 02:56:42;;;;;;;;;;;29.40;99.90;;;;;;4217465;28;20374;-67
2022/10/07 02:58:47;;;;;;;;;;;29.40;99.90;;;;;;4232030;28;20101;-67
2022/10/07 03:00:51;;;;;;;;;;;29.40;99.90;;;;;;4237467;28;20018;-67
2022/10/07 03:02:56;;;;;;;;;;;29.40;99.90;;;;;;4176800;28;20269;-67
2022/10/07 03:05:09;;;;;;;;;;;29.40;99.90;;;;;;4219795;28;20039;-67
2022/10/07 03:07:13;;;;;;;;;;;29.40;99.90;;;;;;4200644;28;19928;-67
2022/10/07 03:09:17;;;;;;;;;;;29.50;99.90;;;;;;4186314;28;19924;-67
2022/10/07 03:11:23;;;;;;;;;;;29.50;99.90;;;;;;4186792;28;19939;-67
2022/10/07 03:13:30;;;;;;;;;;;29.60;99.90;;;;;;4195925;28;19935;-67
2022/10/07 03:15:37;;;;;;;;;;;29.70;99.90;;;;;;4223561;27;19932;-67
2022/10/07 03:17:52;;;;;;;;;;;29.80;99.90;;;;;;4199787;28;19974;-69
2022/10/07 03:19:58;;;;;;;;;;;29.80;99.90;;;;;;4205656;28;19928;-67
2022/10/07 03:22:02;;;;;;;;;;;29.90;99.90;;;;;;4191292;28;19934;-67
2022/10/07 03:24:10;;;;;;;;;;;30.00;99.90;;;;;;4198937;28;20362;-67
2022/10/07 03:26:18;;;;;;;;;;;30.00;99.90;;;;;;4189246;28;20066;-66
2022/10/07 03:28:23;;;;;;;;;;;29.90;99.90;;;;;;4153688;28;19964;-66
2022/10/07 03:30:31;;;;;;;;;;;30.00;99.90;;;;;;4177398;28;19927;-67
2022/10/07 03:32:40;;;;;;;;;;;30.00;99.90;;;;;;4180962;28;19940;-67
2022/10/07 03:34:44;;;;;;;;;;;30.00;99.90;;;;;;4182333;28;19928;-67
2022/10/07 03:36:50;;;;;;;;;;;30.00;99.90;;;;;;4206990;28;19938;-67
2022/10/07 03:38:57;;;;;;;;;;;30.10;99.90;;;;;;4206395;28;19974;-67
2022/10/07 03:41:03;;;;;;;;;;;30.20;99.90;;;;;;4186975;28;20337;-67
2022/10/07 03:43:09;;;;;;;;;;;30.30;99.90;;;;;;4181217;28;19932;-66
2022/10/07 03:45:16;;;;;;;;;;;30.30;99.90;;;;;;4184897;28;20779;-67
2022/10/07 03:47:20;;;;;;;;;;;30.40;99.60;;;;;;4208468;28;20027;-67
2022/10/07 03:49:26;;;;;;;;;;;30.40;99.90;;;;;;4191064;28;20035;-66
2022/10/07 03:51:32;;;;;;;;;;;30.50;99.90;;;;;;4209728;28;20461;-66
2022/10/07 03:53:38;;;;;;;;;;;30.50;99.60;;;;;;4194030;28;19932;-66
2022/10/07 03:55:44;;;;;;;;;;;30.60;99.40;;;;;;4192068;28;19935;-66
2022/10/07 03:57:52;;;;;;;;;;;30.60;99.50;;;;;;4210094;28;19996;-66
2022/10/07 04:00:03;;;;;;;;;;;30.70;99.00;;;;;;4219358;28;19928;-66
2022/10/07 04:02:17;;;;;;;;;;;30.70;99.10;;;;;;4210122;28;19931;-66
2022/10/07 04:04:25;;;;;;;;;;;30.70;99.20;;;;;;4191946;28;19929;-66
2022/10/07 04:06:30;;;;;;;;;;;30.80;98.80;;;;;;4208706;28;20375;-66
2022/10/07 04:08:40;;;;;;;;;;;30.80;98.60;;;;;;4191166;28;19998;-66
2022/10/07 04:10:45;;;;;;;;;;;30.90;98.60;;;;;;4191544;28;19960;-66
2022/10/07 04:12:53;;;;;;;;;;;30.90;98.20;;;;;;4210244;28;20646;-66
2022/10/07 04:15:00;;;;;;;;;;;30.90;98.30;;;;;;4202886;28;20558;-66
2022/10/07 04:17:06;;;;;;;;;;;30.80;98.20;;;;;;4203518;28;19950;-66
2022/10/07 04:19:12;;;;;;;;;;;30.80;98.30;;;;;;4207989;28;19955;-67
2022/10/07 04:21:19;;;;;;;;;;;30.80;98.30;;;;;;4191696;28;19932;-66
2022/10/07 04:23:25;;;;;;;;;;;30.80;98.50;;;;;;4213532;28;20202;-66
2022/10/07 04:25:32;;;;;;;;;;;30.90;98.80;;;;;;4192233;28;20008;-66
2022/10/07 04:27:43;;;;;;;;;;;30.90;98.50;;;;;;4208478;28;20380;-66
2022/10/07 04:29:55;;;;;;;;;;;31.00;98.50;;;;;;4234298;27;20456;-66
2022/10/07 04:31:59;;;;;;;;;;;30.90;98.50;;;;;;4224656;28;20037;-66
2022/10/07 04:34:05;;;;;;;;;;;31.00;98.70;;;;;;4207407;28;19928;-66
2022/10/07 04:36:15;;;;;;;;;;;31.10;98.20;;;;;;4207957;28;19928;-66
2022/10/07 04:38:25;;;;;;;;;;;31.30;98.00;;;;;;4207517;28;20011;-66
2022/10/07 04:40:36;;;;;;;;;;;31.20;97.70;;;;;;4207284;28;19940;-66
2022/10/07 04:44:59;;;;;;;;;;;31.10;97.40;;;;;;4199483;28;19928;-66
2022/10/07 04:47:05;;;;;;;;;;;31.00;97.40;;;;;;4206350;28;20034;-66
2022/10/07 04:49:13;;;;;;;;;;;30.90;97.60;;;;;;4205980;28;19928;-66
2022/10/07 04:51:17;;;;;;;;;;;31.00;97.60;;;;;;4203189;28;20033;-65
2022/10/07 04:53:26;;;;;;;;;;;31.10;97.80;;;;;;4206637;28;19974;-67
2022/10/07 04:55:42;;;;;;;;;;;31.10;98.30;;;;;;4205706;28;19935;-66
2022/10/07 04:57:48;;;;;;;;;;;31.10;98.30;;;;;;4220633;28;19963;-67
2022/10/07 04:59:55;;;;;;;;;;;31.10;98.10;;;;;;4196957;28;19935;-66
2022/10/07 05:02:02;;;;;;;;;;;31.10;98.20;;;;;;4217678;28;20481;-66
2022/10/07 05:04:10;;;;;;;;;;;31.00;98.30;;;;;;4215690;27;20507;-67
2022/10/07 05:06:17;;;;;;;;;;;31.10;98.20;;;;;;4217235;28;20015;-67
2022/10/07 05:08:26;;;;;;;;;;;31.10;98.00;;;;;;4204461;28;20674;-66
2022/10/07 05:10:34;;;;;;;;;;;31.20;97.80;;;;;;4203446;28;19928;-66
2022/10/07 05:12:41;;;;;;;;;;;31.30;97.70;;;;;;4201480;28;19932;-67
2022/10/07 05:14:47;;;;;;;;;;;31.50;97.70;;;;;;4212438;28;19927;-67
2022/10/07 05:16:52;;;;;;;;;;;31.50;97.60;;;;;;4203954;28;19967;-67
2022/10/07 05:19:02;;;;;;;;;;;31.50;97.80;;;;;;4204068;28;19939;-67
2022/10/07 05:21:10;;;;;;;;;;;31.40;98.00;;;;;;4202916;28;19928;-67
2022/10/07 05:23:19;;;;;;;;;;;31.50;97.80;;;;;;4204955;28;20006;-69
2022/10/07 05:25:34;;;;;;;;;;;31.50;97.70;;;;;;4190216;28;19928;-69
2022/10/07 05:27:40;;;;;;;;;;;31.40;97.30;;;;;;4205239;28;20387;-68
2022/10/07 05:29:44;;;;;;;;;;;31.50;97.30;;;;;;4220961;28;19928;-68
2022/10/07 05:31:51;;;;;;;;;;;31.50;97.30;;;;;;4202773;28;19928;-69
2022/10/07 05:34:00;;;;;;;;;;;31.50;97.30;;;;;;4206185;28;19932;-68
2022/10/07 05:36:05;;;;;;;;;;;31.50;97.40;;;;;;4206324;28;19928;-68
2022/10/07 05:38:11;;;;;;;;;;;31.60;97.30;;;;;;4206647;28;19967;-67
2022/10/07 05:40:15;;;;;;;;;;;31.70;97.50;;;;;;4205039;28;19928;-68
2022/10/07 05:42:19;;;;;;;;;;;31.70;97.40;;;;;;4187305;28;20055;-68
2022/10/07 05:44:32;;;;;;;;;;;31.70;97.20;;;;;;4204754;28;20027;-67
2022/10/07 05:46:40;;;;;;;;;;;31.70;97.10;;;;;;4206171;28;20027;-67
2022/10/07 05:48:44;;;;;;;;;;;31.70;96.70;;;;;;4205486;28;20411;-67
2022/10/07 05:50:50;;;;;;;;;;;31.80;96.80;;;;;;4189072;28;19990;-67
2022/10/07 05:52:55;;;;;;;;;;;31.80;96.80;;;;;;4224509;28;19928;-68
2022/10/07 05:54:59;;;;;;;;;;;31.80;96.50;;;;;;4205815;28;19998;-67
2022/10/07 05:57:07;;;;;;;;;;;31.80;97.00;;;;;;4239615;27;20003;-67
2022/10/07 05:59:14;;;;;;;;;;;31.80;97.10;;;;;;4202889;28;20348;-67
2022/10/07 06:01:21;;;;;;;;;;;31.90;97.10;;;;;;4205226;28;20604;-67
2022/10/07 06:03:27;;;;;;;;;;;31.90;96.70;;;;;;4188917;28;19971;-67
2022/10/07 06:05:37;;;;;;;;;;;31.90;96.40;;;;;;4205076;28;19935;-67
2022/10/07 06:07:42;;;;;;;;;;;31.90;96.00;;;;;;4205520;28;20366;-67
2022/10/07 06:14:27;;;;;;;;;;;32.00;96.20;;;;;;4205928;28;19928;-67
2022/10/07 06:16:32;;;;;;;;;;;32.00;96.50;;;;;;4223588;28;19928;-67
2022/10/07 06:18:39;;;;;;;;;;;32.00;96.50;;;;;;4203220;28;19928;-67
2022/10/07 06:20:51;;;;;;;;;;;32.10;96.10;;;;;;4223935;28;19934;-67
2022/10/07 06:22:58;;;;;;;;;;;32.30;96.30;;;;;;4221516;28;19935;-68
2022/10/07 06:25:03;;;;;;;;;;;32.30;95.70;;;;;;4202396;28;19928;-68
2022/10/07 06:27:07;;;;;;;;;;;32.20;96.00;;;;;;4205212;28;20534;-68
2022/10/07 06:29:13;;;;;;;;;;;32.20;96.40;;;;;;4204660;28;19935;-68
2022/10/07 06:31:23;;;;;;;;;;;32.20;96.30;;;;;;4202146;28;19941;-67
2022/10/07 06:33:33;;;;;;;;;;;32.30;96.40;;;;;;4202877;28;19932;-68
2022/10/07 06:35:37;;;;;;;;;;;32.20;96.10;;;;;;4205600;28;20458;-68
2022/10/07 06:37:44;;;;;;;;;;;32.10;95.90;;;;;;4207183;28;19932;-67
2022/10/07 06:39:48;;;;;;;;;;;32.20;96.40;;;;;;4206073;28;19928;-68
2022/10/07 06:41:56;;;;;;;;;;;32.20;96.50;;;;;;4204206;28;19928;-67
2022/10/07 06:44:12;;;;;;;;;;;32.20;96.50;;;;;;4204267;28;19928;-67
2022/10/07 06:46:17;;;;;;;;;;;32.30;96.60;;;;;;4157052;28;19932;-68
2022/10/07 06:48:24;;;;;;;;;;;32.30;96.20;;;;;;4158508;28;19935;-68
2022/10/07 06:50:29;;;;;;;;;;;32.20;96.30;;;;;;4172384;28;19967;-67
2022/10/07 06:52:33;;;;;;;;;;;32.20;96.10;;;;;;4177546;28;19924;-67
2022/10/07 06:54:43;;;;;;;;;;;32.30;96.40;;;;;;4207657;28;19928;-68
2022/10/07 06:56:48;;;;;;;;;;;32.30;96.00;;;;;;4098072;28;19956;-68
2022/10/07 06:58:53;;;;;;;;;;;32.20;95.80;;;;;;4189329;28;20090;-68
2022/10/07 07:01:06;;;;;;;;;;;32.30;95.70;;;;;;4205037;28;19977;-69
2022/10/07 07:03:11;;;;;;;;;;;32.30;95.80;;;;;;4206032;28;19932;-67
2022/10/07 07:05:14;;;;;;;;;;;32.30;95.70;;;;;;4211402;28;19997;-67
2022/10/07 07:07:23;;;;;;;;;;;32.40;95.40;;;;;;4227312;28;19967;-68
2022/10/07 07:09:30;;;;;;;;;;;32.30;95.50;;;;;;4202087;27;20009;-68
2022/10/07 07:11:35;;;;;;;;;;;32.30;95.90;;;;;;4211403;28;19928;-68
2022/10/07 07:13:50;;;;;;;;;;;32.30;95.80;;;;;;4203348;28;20019;-68
2022/10/07 07:15:57;;;;;;;;;;;32.30;95.80;;;;;;4185272;28;20027;-68
2022/10/07 07:18:05;;;;;;;;;;;32.30;95.60;;;;;;4195139;28;20460;-68
2022/10/07 07:20:09;;;;;;;;;;;32.40;95.80;;;;;;4190037;27;20151;-67
2022/10/07 07:22:14;;;;;;;;;;;32.40;95.70;;;;;;4161717;28;19977;-67
2022/10/07 07:24:18;;;;;;;;;;;32.50;95.70;;;;;;4224782;27;19928;-68
2022/10/07 07:26:27;;;;;;;;;;;32.50;95.90;;;;;;4184052;28;20477;-67
2022/10/07 07:28:34;;;;;;;;;;;32.40;95.90;;;;;;4189627;28;19935;-68
2022/10/07 07:30:40;;;;;;;;;;;32.50;95.80;;;;;;4190788;28;19932;-67
2022/10/07 07:32:46;;;;;;;;;;;32.40;95.60;;;;;;4169208;28;20306;-68
2022/10/07 07:34:51;;;;;;;;;;;32.50;95.70;;;;;;4192101;28;19996;-68
2022/10/07 07:37:00;;;;;;;;;;;32.50;94.70;;;;;;4186193;28;19990;-68
2022/10/07 07:39:21;;;;;;;;;;;32.40;95.20;;;;;;4189019;28;20031;-68
2022/10/07 07:42:06;;;;;;;;;;;32.50;94.90;;;;;;4207762;28;19927;-67
2022/10/07 07:44:32;;;;;;;;;;;32.50;94.90;;;;;;4189938;28;19968;-67
2022/10/07 07:47:00;;;;;;;;;;;32.40;95.10;;;;;;4205798;28;20398;-68
2022/10/07 07:49:26;;;;;;;;;;;32.50;95.20;;;;;;4165944;28;19982;-67
2022/10/07 07:51:33;;;;;;;;;;;32.50;95.20;;;;;;4182372;28;19963;-68
2022/10/07 07:53:43;;;;;;;;;;;32.40;94.80;;;;;;4154557;28;19964;-68
2022/10/07 07:55:55;;;;;;;;;;;32.40;94.80;;;;;;4217816;28;19990;-68
2022/10/07 07:58:03;;;;;;;;;;;32.40;94.80;;;;;;4183375;28;19960;-67
2022/10/07 08:00:17;;;;;;;;;;;32.40;94.70;;;;;;4182813;28;19942;-67
2022/10/07 08:02:42;;;;;;;;;;;32.40;94.80;;;;;;4180392;28;19970;-67
2022/10/07 08:05:01;;;;;;;;;;;32.40;95.20;;;;;;4186981;28;19944;-68
2022/10/07 08:07:10;;;;;;;;;;;32.30;95.30;;;;;;4158308;28;19928;-68
2022/10/07 08:09:23;;;;;;;;;;;32.30;95.30;;;;;;4153779;28;19929;-68
2022/10/07 08:11:32;;;;;;;;;;;32.30;95.10;;;;;;4183261;28;19932;-67
2022/10/07 08:13:57;;;;;;;;;;;32.30;95.30;;;;;;4156079;28;19935;-67
2022/10/07 08:16:13;;;;;;;;;;;32.30;95.20;;;;;;4168361;28;19960;-67
2022/10/07 08:18:18;;;;;;;;;;;32.40;95.20;;;;;;4165536;28;19996;-68
2022/10/07 08:20:23;;;;;;;;;;;32.40;95.30;;;;;;4174756;28;19928;-68
2022/10/07 08:22:28;;;;;;;;;;;32.30;94.80;;;;;;4177693;28;20015;-68
2022/10/07 08:24:37;;;;;;;;;;;32.30;94.80;;;;;;3933022;28;10000438;-68
2022/10/07 08:27:01;;;;;;;;;;;32.40;94.90;;;;;;3652714;28;10001514;-67
2022/10/07 08:29:23;;;;;;;;;;;32.40;94.60;;;;;;4169646;28;19933;-68
2022/10/07 08:31:32;;;;;;;;;;;32.40;95.00;;;;;;4172146;28;19929;-67
2022/10/07 08:33:46;;;;;;;;;;;32.40;95.20;;;;;;4078675;28;20604;-67
2022/10/07 08:35:51;;;;;;;;;;;32.40;95.20;;;;;;4173176;28;19983;-67
2022/10/07 08:37:56;;;;;;;;;;;32.40;95.10;;;;;;4187513;28;19958;-67
2022/10/07 08:40:02;;;;;;;;;;;32.40;94.70;;;;;;4169255;28;20703;-67
2022/10/07 08:42:21;;;;;;;;;;;32.40;94.60;;;;;;4173722;28;19928;-67
2022/10/07 08:44:34;;;;;;;;;;;32.40;94.50;;;;;;4175441;28;19960;-67
2022/10/07 08:46:59;;;;;;;;;;;32.30;94.70;;;;;;4172497;28;19932;-67
2022/10/07 08:49:11;;;;;;;;;;;32.20;94.90;;;;;;4189043;28;20642;-68
2022/10/07 08:51:25;;;;;;;;;;;32.20;95.10;;;;;;4172841;28;19937;-67
2022/10/07 08:53:33;;;;;;;;;;;32.30;95.10;;;;;;4173057;28;20518;-67
2022/10/07 08:55:38;;;;;;;;;;;32.30;94.90;;;;;;4182799;28;19998;-67
2022/10/07 08:58:04;;;;;;;;;;;32.40;95.20;;;;;;4171780;28;20577;-67
2022/10/07 09:00:09;;;;;;;;;;;32.40;95.20;;;;;;4172292;28;19929;-67
2022/10/07 09:02:25;;;;;;;;;;;32.50;95.00;;;;;;4169599;28;19928;-67
2022/10/07 09:04:34;;;;;;;;;;;32.60;94.90;;;;;;4164224;28;20047;-65
2022/10/07 09:06:59;;;;;;;;;;;32.60;94.80;;;;;;4160406;28;19929;-69
2022/10/07 09:09:05;;;;;;;;;;;32.40;95.00;;;;;;4166616;28;19959;-68
2022/10/07 09:11:14;;;;;;;;;;;32.00;96.50;;;;;;4204899;28;19928;-68
2022/10/07 09:13:25;;;;;;;;;;;31.50;97.20;;;;;;4187710;28;19951;-68
2022/10/07 09:15:49;;;;;;;;;;;31.30;97.90;;;;;;4180675;28;20310;-68
2022/10/07 09:17:55;;;;;;;;;;;31.30;97.90;;;;;;4180923;28;19948;-68
2022/10/07 09:20:01;;;;;;;;;;;31.30;98.30;;;;;;4169382;28;20406;-69
2022/10/07 09:22:09;;;;;;;;;;;31.20;98.90;;;;;;4171195;28;19972;-68
2022/10/07 09:24:14;;;;;;;;;;;31.30;99.40;;;;;;4145536;28;20023;-68
2022/10/07 09:26:20;;;;;;;;;;;31.30;99.60;;;;;;4156123;28;20024;-68
2022/10/07 09:28:26;;;;;;;;;;;31.40;99.20;;;;;;4154818;28;19929;-67
2022/10/07 09:30:32;;;;;;;;;;;31.40;98.80;;;;;;4156040;28;19937;-68
2022/10/07 09:32:37;;;;;;;;;;;31.40;98.80;;;;;;4155255;28;19929;-67
2022/10/07 09:34:41;;;;;;;;;;;31.40;98.80;;;;;;4155657;28;20459;-67
2022/10/07 09:36:57;;;;;;;;;;;31.40;98.90;;;;;;4150649;28;19929;-67
2022/10/07 09:39:21;;;;;;;;;;;31.20;99.80;;;;;;4155536;28;19929;-68
2022/10/07 09:41:30;;;;;;;;;;;31.20;99.90;;;;;;4155072;28;20341;-69
2022/10/07 09:43:37;;;;;;;;;;;31.20;99.80;;;;;;4155502;28;20386;-68
2022/10/07 09:45:46;;;;;;;;;;;31.20;99.60;;;;;;4157486;28;19995;-68
2022/10/07 09:47:51;;;;;;;;;;;31.20;99.20;;;;;;4157896;28;20442;-68
2022/10/07 09:49:58;;;;;;;;;;;31.20;98.90;;;;;;4139546;28;20601;-69
2022/10/07 09:52:14;;;;;;;;;;;31.20;98.80;;;;;;4155175;28;19929;-68
2022/10/07 09:54:20;;;;;;;;;;;31.20;98.60;;;;;;4155957;28;20749;-69
2022/10/07 09:56:33;;;;;;;;;;;31.20;98.20;;;;;;4157665;28;19929;-67
2022/10/07 09:58:38;;;;;;;;;;;31.10;97.80;;;;;;4155497;28;19960;-67
2022/10/07 10:00:48;;;;;;;;;;;31.10;99.40;;;;;;4154023;28;19929;-66
2022/10/07 10:03:02;;;;;;;;;;;31.10;98.40;;;;;;4171646;28;19963;-67
2022/10/07 10:05:17;;;;;;;;;;;31.10;98.40;;;;;;4155733;28;20039;-67
2022/10/07 10:07:25;;;;;;;;;;;31.10;98.20;;;;;;4151998;28;20447;-68
2022/10/07 10:09:30;;;;;;;;;;;31.10;98.60;;;;;;4154445;28;19987;-69
2022/10/07 10:11:34;;;;;;;;;;;31.10;98.60;;;;;;4154270;28;19929;-68
2022/10/07 10:13:39;;;;;;;;;;;31.10;98.60;;;;;;4150308;28;20711;-67
2022/10/07 10:15:48;;;;;;;;;;;31.10;99.10;;;;;;4166216;28;20669;-67
2022/10/07 10:17:55;;;;;;;;;;;31.10;98.10;;;;;;4162237;28;19959;-68
2022/10/07 10:20:11;;;;;;;;;;;31.10;98.30;;;;;;4156793;28;20031;-67
2022/10/07 10:22:26;;;;;;;;;;;31.00;98.40;;;;;;4152989;28;19935;-67
2022/10/07 10:26:49;;;;;;;;;;;31.10;99.20;;;;;;4185755;28;19932;-68
2022/10/07 10:28:56;;;;;;;;;;;31.00;99.70;;;;;;4186959;28;19936;-68
2022/10/07 10:31:19;;;;;;;;;;;31.00;99.90;;;;;;4194635;28;19932;-67
2022/10/07 10:33:24;;;;;;;;;;;30.90;99.90;;;;;;4177205;28;19939;-67
2022/10/07 10:35:30;;;;;;;;;;;30.90;99.90;;;;;;4188072;28;19928;-66
2022/10/07 10:37:44;;;;;;;;;;;30.80;99.90;;;;;;4187309;28;19995;-68
2022/10/07 10:39:51;;;;;;;;;;;30.80;99.90;;;;;;4189728;28;19928;-68
2022/10/07 10:41:57;;;;;;;;;;;30.80;99.90;;;;;;4185761;28;20538;-67
2022/10/07 10:44:13;;;;;;;;;;;30.80;99.90;;;;;;4193089;28;19934;-67
2022/10/07 10:46:24;;;;;;;;;;;30.70;99.90;;;;;;4207623;28;19928;-67
2022/10/07 10:48:33;;;;;;;;;;;30.70;99.90;;;;;;4205693;28;19932;-67
2022/10/07 10:50:52;;;;;;;;;;;30.60;99.90;;;;;;4205552;28;19928;-68
2022/10/07 10:53:03;;;;;;;;;;;30.50;99.90;;;;;;4189399;28;19929;-68
2022/10/07 10:55:20;;;;;;;;;;;30.60;99.90;;;;;;4189758;28;19944;-68
2022/10/07 10:57:35;;;;;;;;;;;30.50;99.90;;;;;;4173692;28;19937;-67
2022/10/07 10:59:45;;;;;;;;;;;30.50;99.90;;;;;;4190521;28;19955;-67
2022/10/07 11:01:53;;;;;;;;;;;30.40;99.90;;;;;;4189894;28;19928;-67
2022/10/07 11:03:59;;;;;;;;;;;30.40;99.90;;;;;;4173405;28;19936;-68
2022/10/07 11:06:05;;;;;;;;;;;30.30;99.90;;;;;;4189464;28;19928;-69
2022/10/07 11:08:11;;;;;;;;;;;30.30;99.90;;;;;;4181281;28;19929;-68
2022/10/07 11:10:15;;;;;;;;;;;30.30;99.90;;;;;;4182098;28;19928;-66
2022/10/07 11:12:23;;;;;;;;;;;30.30;99.90;;;;;;4184921;28;19928;-67
2022/10/07 11:14:28;;;;;;;;;;;30.20;99.90;;;;;;4166124;28;19928;-67
2022/10/07 11:16:36;;;;;;;;;;;30.10;99.90;;;;;;4190322;28;20022;-67
2022/10/07 11:18:47;;;;;;;;;;;30.10;99.90;;;;;;4189898;28;19932;-68
2022/10/07 11:20:53;;;;;;;;;;;30.00;99.90;;;;;;4189144;28;19940;-68
2022/10/07 11:23:02;;;;;;;;;;;29.90;99.90;;;;;;4181286;28;19943;-67
2022/10/07 11:25:18;;;;;;;;;;;29.90;99.90;;;;;;4170297;28;20014;-67
2022/10/07 11:27:31;;;;;;;;;;;30.00;99.90;;;;;;4189599;28;20345;-67
2022/10/07 11:29:38;;;;;;;;;;;29.90;99.90;;;;;;4189005;28;19928;-67
2022/10/07 11:32:01;;;;;;;;;;;29.90;99.90;;;;;;4188634;28;20553;-68
2022/10/07 11:34:17;;;;;;;;;;;29.90;99.90;;;;;;4185964;28;20383;-69
2022/10/07 11:36:24;;;;;;;;;;;29.90;99.90;;;;;;4188051;28;19928;-66
2022/10/07 11:38:28;;;;;;;;;;;29.90;99.90;;;;;;4186419;28;19935;-68
2022/10/07 11:40:32;;;;;;;;;;;29.90;99.90;;;;;;4171596;28;19951;-66
2022/10/07 11:42:39;;;;;;;;;;;29.90;99.90;;;;;;4191055;28;20025;-67
2022/10/07 11:44:56;;;;;;;;;;;29.90;99.90;;;;;;4191631;28;20048;-67
2022/10/07 11:47:02;;;;;;;;;;;29.90;99.90;;;;;;4192669;28;20684;-66
2022/10/07 11:49:20;;;;;;;;;;;29.90;99.90;;;;;;4190762;28;20022;-67
2022/10/07 11:51:27;;;;;;;;;;;29.90;99.90;;;;;;4186307;28;20469;-67
2022/10/07 11:53:38;;;;;;;;;;;29.90;99.90;;;;;;4187855;28;19951;-66
2022/10/07 11:56:02;;;;;;;;;;;29.80;99.90;;;;;;4189975;28;20383;-67
2022/10/07 11:58:34;;;;;;;;;;;29.80;99.90;;;;;;4192362;28;19985;-67
2022/10/07 12:00:39;;;;;;;;;;;29.80;99.90;;;;;;4177418;28;19928;-68
2022/10/07 12:02:44;;;;;;;;;;;29.80;99.90;;;;;;4192371;28;19933;-68
2022/10/07 12:04:49;;;;;;;;;;;29.80;99.90;;;;;;4190883;28;19932;-68
2022/10/07 12:07:05;;;;;;;;;;;29.80;99.90;;;;;;4189580;28;19936;-67
2022/10/07 12:09:21;;;;;;;;;;;29.80;99.90;;;;;;4192289;28;19928;-68
2022/10/07 12:11:31;;;;;;;;;;;29.80;99.90;;;;;;4173788;28;20744;-67
2022/10/07 12:13:37;;;;;;;;;;;29.80;99.90;;;;;;4191747;28;19986;-68
2022/10/07 12:15:41;;;;;;;;;;;29.70;99.90;;;;;;4188272;28;20288;-67
2022/10/07 12:17:53;;;;;;;;;;;29.70;99.90;;;;;;4174612;28;19939;-68
2022/10/07 12:20:09;;;;;;;;;;;29.70;99.90;;;;;;4192254;28;19974;-68
2022/10/07 12:22:16;;;;;;;;;;;29.50;99.90;;;;;;4189115;28;19928;-67
2022/10/07 12:24:20;;;;;;;;;;;29.60;99.90;;;;;;4189630;28;19982;-67
2022/10/07 12:26:34;;;;;;;;;;;29.50;99.90;;;;;;4191686;28;20596;-67
2022/10/07 12:28:47;;;;;;;;;;;29.50;99.90;;;;;;4189396;28;20665;-67
2022/10/07 12:30:52;;;;;;;;;;;29.50;99.90;;;;;;4190740;28;19929;-67
2022/10/07 12:32:56;;;;;;;;;;;29.50;99.90;;;;;;4192122;28;19928;-68
2022/10/07 12:35:17;;;;;;;;;;;29.40;99.90;;;;;;4173743;28;19972;-67
2022/10/07 12:37:34;;;;;;;;;;;29.50;99.90;;;;;;4187489;28;20018;-67
2022/10/07 12:39:40;;;;;;;;;;;29.50;99.90;;;;;;4192208;28;19985;-67